Time;durP1;ratioP1;P1;durP2;ratioP2;P2;SDS_P1;SDS_P2;PMS_P1;PMS_P2;Temp;Humidity;BMP_temperature;BMP_pressure;BME280_temperature;BME280_humidity;BME280_pressure;Samples;Min_cycle;Max_cycle;Signal;HPM_P1;HPM_P2
2022/07/04 00:01:09;;;;;;;3.00;1.87;;;;;;;21.54;74.60;101033.88;5054696;28;20876;-70
2022/07/04 00:03:36;;;;;;;1.80;1.43;;;;;;;21.41;74.70;101037.94;5057210;28;20484;-70
2022/07/04 00:06:02;;;;;;;3.70;1.87;;;;;;;21.32;75.13;101031.84;5056914;28;21023;-70
2022/07/04 00:08:29;;;;;;;1.30;1.20;;;;;;;21.21;75.66;101036.34;5057105;28;20516;-70
2022/07/04 00:10:55;;;;;;;4.80;1.40;;;;;;;21.19;76.21;101039.44;5056622;28;20517;-70
2022/07/04 00:13:23;;;;;;;1.50;1.27;;;;;;;21.21;75.88;101039.09;5057038;28;20517;-69
2022/07/04 00:15:50;;;;;;;3.20;1.77;;;;;;;21.13;76.77;101035.38;5056667;28;20536;-70
2022/07/04 00:18:17;;;;;;;2.03;1.80;;;;;;;21.15;77.22;101020.06;5082715;22;20509;-66
2022/07/04 00:20:43;;;;;;;1.87;1.30;;;;;;;21.17;77.54;101011.47;5036873;28;20513;-68
2022/07/04 00:23:10;;;;;;;2.20;1.97;;;;;;;21.18;77.54;101004.78;5036924;28;20512;-69
2022/07/04 00:25:36;;;;;;;2.07;1.30;;;;;;;21.14;78.13;100988.16;5037148;28;20529;-68
2022/07/04 00:28:03;;;;;;;3.57;2.00;;;;;;;21.11;78.77;100979.84;5036879;28;20522;-69
2022/07/04 00:30:31;;;;;;;2.63;1.90;;;;;;;21.05;79.41;100995.88;5036439;28;20542;-68
2022/07/04 00:32:58;;;;;;;2.13;1.60;;;;;;;20.97;79.87;101009.84;5036606;28;20554;-68
2022/07/04 00:35:25;;;;;;;1.57;1.33;;;;;;;20.97;79.69;101001.59;5036790;28;20522;-68
2022/07/04 00:37:51;;;;;;;1.77;1.33;;;;;;;20.87;79.93;101006.50;5036644;28;20533;-68
2022/07/04 00:40:18;;;;;;;2.10;1.70;;;;;;;20.81;80.27;101013.47;5036285;28;20542;-67
2022/07/04 00:42:44;;;;;;;2.90;2.10;;;;;;;20.65;81.11;101010.75;5036587;28;20573;-70
2022/07/04 00:45:11;;;;;;;2.30;2.10;;;;;;;20.64;80.93;101008.34;5036526;28;20466;-68
2022/07/04 00:47:39;;;;;;;1.60;1.50;;;;;;;20.59;81.76;101001.19;5036263;28;20485;-69
2022/07/04 00:50:06;;;;;;;3.87;2.20;;;;;;;20.55;82.19;101005.00;5036073;28;20550;-67
2022/07/04 00:52:33;;;;;;;2.30;1.77;;;;;;;20.53;82.99;101007.31;5036117;28;20526;-69
2022/07/04 00:55:01;;;;;;;2.47;1.60;;;;;;;20.49;83.14;101011.91;5036366;28;20530;-70
2022/07/04 00:57:28;;;;;;;2.23;1.90;;;;;;;20.47;83.13;101009.50;5036324;28;20457;-69
2022/07/04 00:59:55;;;;;;;2.33;1.80;;;;;;;20.38;83.90;101017.16;5036182;28;20546;-70
2022/07/04 01:02:21;;;;;;;2.40;2.20;;;;;;;20.37;84.29;101019.13;5035882;28;20482;-68
2022/07/04 01:04:49;;;;;;;3.80;1.83;;;;;;;20.37;84.14;101032.88;5036198;28;20443;-69
2022/07/04 01:07:17;;;;;;;2.27;1.80;;;;;;;20.34;84.54;101043.78;5036206;28;20526;-68
2022/07/04 01:09:44;;;;;;;3.33;2.33;;;;;;;20.30;84.75;101038.19;5036216;28;20491;-69
2022/07/04 01:12:11;;;;;;;2.97;2.40;;;;;;;20.25;84.45;101056.94;5035295;28;20443;-70
2022/07/04 01:14:38;;;;;;;4.40;2.30;;;;;;;20.16;84.96;101055.16;5036040;28;20533;-67
2022/07/04 01:17:05;;;;;;;2.20;2.00;;;;;;;20.11;86.03;101054.63;5035618;28;20542;-69
2022/07/04 01:19:32;;;;;;;2.30;1.90;;;;;;;20.00;86.37;101061.78;5035648;28;20483;-69
2022/07/04 01:22:06;;;;;;;1.90;1.50;;;;;;;19.95;87.33;101064.81;5035779;28;20523;-69
2022/07/04 01:24:32;;;;;;;5.63;3.40;;;;;;;19.90;87.67;101063.09;5036083;28;20427;-68
2022/07/04 01:26:59;;;;;;;3.17;2.17;;;;;;;19.88;87.92;101059.94;5035816;28;20447;-70
2022/07/04 01:29:25;;;;;;;2.57;2.20;;;;;;;19.88;87.47;101065.44;5035629;28;20513;-68
2022/07/04 01:31:53;;;;;;;4.00;2.23;;;;;;;19.83;88.17;101069.22;5035603;28;20443;-69
2022/07/04 01:34:20;;;;;;;3.60;2.50;;;;;;;19.73;88.68;101071.69;5035582;28;20443;-68
2022/07/04 01:36:46;;;;;;;3.13;2.67;;;;;;;19.68;88.70;101077.44;5035665;28;20514;-69
2022/07/04 01:39:14;;;;;;;3.40;2.77;;;;;;;19.58;90.57;101073.22;5035348;28;20549;-69
2022/07/04 01:41:41;;;;;;;4.17;2.53;;;;;;;19.51;91.36;101086.72;5035527;28;20526;-68
2022/07/04 01:44:08;;;;;;;3.20;2.37;;;;;;;19.46;92.21;101087.78;5035145;28;20530;-69
2022/07/04 01:46:34;;;;;;;3.60;2.90;;;;;;;19.37;93.37;101090.69;5035306;28;20538;-69
2022/07/04 01:49:01;;;;;;;4.63;2.63;;;;;;;19.31;93.76;101080.28;5035247;28;20463;-69
2022/07/04 01:51:27;;;;;;;4.50;3.17;;;;;;;19.14;94.79;101095.09;5035252;28;20446;-68
2022/07/04 01:53:54;;;;;;;4.50;3.57;;;;;;;19.17;94.79;101088.91;5035307;28;20444;-70
2022/07/04 01:56:22;;;;;;;3.20;2.90;;;;;;;19.14;95.67;101092.34;5035293;28;20449;-68
2022/07/04 01:58:48;;;;;;;4.37;3.20;;;;;;;19.14;95.61;101098.63;5035147;28;20547;-70
2022/07/04 02:01:29;;;;;;;3.57;2.90;;;;;;;19.10;96.16;101102.41;5035121;28;20530;-68
2022/07/04 02:03:56;;;;;;;3.10;2.80;;;;;;;19.02;96.57;101103.34;5035056;28;20471;-70
2022/07/04 02:06:23;;;;;;;4.63;2.70;;;;;;;19.00;96.88;101105.66;5035023;28;20467;-69
2022/07/04 02:14:14;;;;;;;3.03;2.73;;;;;;;18.94;97.99;101109.75;5034554;28;20447;-69
2022/07/04 02:16:41;;;;;;;3.33;3.00;;;;;;;18.88;97.85;101104.50;5035179;28;20449;-69
2022/07/04 02:19:08;;;;;;;5.13;3.73;;;;;;;18.82;98.62;101105.09;5034458;28;20561;-68
2022/07/04 02:21:34;;;;;;;6.17;3.27;;;;;;;18.80;99.58;101118.34;5034697;28;20856;-68
2022/07/04 02:24:01;;;;;;;4.97;4.10;;;;;;;18.83;99.40;101123.97;5033687;28;20483;-69
2022/07/04 02:26:27;;;;;;;3.87;3.20;;;;;;;18.89;98.94;101119.81;5034621;28;20553;-68
2022/07/04 02:28:55;;;;;;;6.10;4.10;;;;;;;18.87;98.47;101115.84;5034217;28;20546;-69
2022/07/04 02:31:22;;;;;;;5.47;3.67;;;;;;;18.80;98.66;101118.34;5034560;28;20475;-67
2022/07/04 02:33:48;;;;;;;4.97;3.30;;;;;;;18.76;99.18;101114.69;5034778;28;20439;-69
2022/07/04 02:36:15;;;;;;;4.03;3.60;;;;;;;18.75;99.17;101124.88;5034502;28;20522;-67
2022/07/04 02:38:42;;;;;;;5.73;3.70;;;;;;;18.69;99.52;101126.25;5034393;28;20459;-68
2022/07/04 02:41:08;;;;;;;22.43;4.50;;;;;;;18.60;99.98;101122.78;5034314;28;20530;-69
2022/07/04 02:43:35;;;;;;;5.47;3.83;;;;;;;18.59;100.00;101122.00;5034292;28;20574;-68
2022/07/04 02:46:03;;;;;;;4.47;3.37;;;;;;;18.53;100.00;101117.06;5033893;28;21023;-68
2022/07/04 02:48:30;;;;;;;5.23;3.30;;;;;;;18.43;100.00;101123.78;5034205;28;20550;-68
2022/07/04 02:50:56;;;;;;;4.90;4.20;;;;;;;18.40;100.00;101125.25;5033872;28;20892;-69
2022/07/04 02:53:23;;;;;;;6.43;4.20;;;;;;;18.46;100.00;101116.81;5034194;28;20526;-67
2022/07/04 02:55:49;;;;;;;6.60;4.20;;;;;;;18.40;100.00;101119.78;5034107;28;20542;-68
2022/07/04 02:58:16;;;;;;;4.93;3.83;;;;;;;18.41;100.00;101117.81;5034014;28;20517;-68
2022/07/04 03:00:43;;;;;;;5.27;3.70;;;;;;;18.41;100.00;101115.09;5034211;28;20453;-69
2022/07/04 03:03:11;;;;;;;5.57;4.73;;;;;;;18.45;100.00;101120.69;5033938;28;20580;-70
2022/07/04 03:05:37;;;;;;;4.60;3.93;;;;;;;18.47;100.00;101115.69;5033962;28;20459;-69
2022/07/04 03:08:05;;;;;;;4.33;3.67;;;;;;;18.45;100.00;101116.00;5033903;28;20534;-69
2022/07/04 03:10:31;;;;;;;5.33;3.90;;;;;;;18.45;100.00;101126.19;5033909;28;20443;-69
2022/07/04 03:12:58;;;;;;;4.50;3.83;;;;;;;18.42;100.00;101138.66;5033818;28;20870;-69
2022/07/04 03:15:25;;;;;;;5.23;3.97;;;;;;;18.43;100.00;101144.94;5033713;28;20523;-68
2022/07/04 03:17:51;;;;;;;5.43;4.00;;;;;;;18.31;100.00;101138.28;5033793;28;20530;-70
2022/07/04 03:20:19;;;;;;;4.93;4.17;;;;;;;18.16;100.00;101130.72;5033342;28;20493;-68
2022/07/04 03:22:46;;;;;;;11.50;4.50;;;;;;;18.16;100.00;101138.94;5033632;28;20486;-68
2022/07/04 03:25:12;;;;;;;8.87;5.30;;;;;;;18.14;100.00;101143.94;5033508;28;20518;-69
2022/07/04 03:27:39;;;;;;;9.50;5.17;;;;;;;18.16;100.00;101149.91;5033561;28;20526;-68
2022/07/04 03:30:07;;;;;;;5.10;4.07;;;;;;;18.13;100.00;101153.31;5033402;28;20533;-68
2022/07/04 03:32:33;;;;;;;5.40;3.70;;;;;;;18.18;100.00;101149.56;5033182;28;20530;-69
2022/07/04 03:35:00;;;;;;;5.23;4.73;;;;;;;18.24;100.00;101160.00;5033275;28;20904;-69
2022/07/04 03:37:28;;;;;;;6.70;4.53;;;;;;;18.23;100.00;101157.56;5033399;28;20490;-68
2022/07/04 03:39:54;;;;;;;8.40;5.13;;;;;;;18.13;100.00;101162.34;5033416;28;20469;-72
2022/07/04 03:42:21;;;;;;;7.57;5.30;;;;;;;18.15;100.00;101165.56;5033445;28;20447;-71
2022/07/04 03:44:48;;;;;;;7.77;4.90;;;;;;;18.23;100.00;101160.31;5033072;28;20533;-68
2022/07/04 03:47:15;;;;;;;6.00;5.37;;;;;;;18.18;100.00;101161.31;5033380;28;20887;-69
2022/07/04 03:49:41;;;;;;;6.33;5.43;;;;;;;18.21;100.00;101166.13;5033065;28;20479;-69
2022/07/04 03:52:08;;;;;;;10.33;5.20;;;;;;;18.22;100.00;101173.22;5033013;28;20453;-68
2022/07/04 03:54:36;;;;;;;6.10;5.00;;;;;;;18.26;100.00;101181.59;5033281;28;20435;-69
2022/07/04 03:57:03;;;;;;;6.90;5.73;;;;;;;18.29;100.00;101178.16;5033166;28;20626;-69
2022/07/04 03:59:29;;;;;;;7.87;5.50;;;;;;;18.29;100.00;101186.41;5033082;28;20537;-68
2022/07/04 04:01:56;;;;;;;5.23;4.47;;;;;;;18.26;100.00;101190.59;5032676;28;20937;-69
2022/07/04 04:07:06;;;;;;;9.77;4.70;;;;;;;18.20;100.00;101208.41;5033200;28;20481;-70
2022/07/04 04:09:33;;;;;;;7.03;4.83;;;;;;;18.20;100.00;101210.38;5032810;28;21019;-68
2022/07/04 04:12:01;;;;;;;7.83;4.83;;;;;;;18.27;100.00;101219.63;5033031;28;20909;-70
2022/07/04 04:14:28;;;;;;;8.20;4.83;;;;;;;18.29;100.00;101216.56;5033017;28;20435;-67
2022/07/04 04:16:54;;;;;;;5.30;4.67;;;;;;;18.25;100.00;101221.13;5032931;28;20458;-69
2022/07/04 04:19:21;;;;;;;6.70;4.40;;;;;;;18.28;100.00;101218.50;5032742;28;20574;-69
2022/07/04 04:21:48;;;;;;;5.63;3.83;;;;;;;18.34;100.00;101222.63;5032938;28;20521;-67
2022/07/04 04:24:14;;;;;;;7.20;4.40;;;;;;;18.30;100.00;101224.44;5032719;28;21018;-68
2022/07/04 04:26:41;;;;;;;7.90;3.70;;;;;;;18.35;100.00;101226.97;5032983;28;20530;-67
2022/07/04 04:29:09;;;;;;;4.77;3.33;;;;;;;18.36;100.00;101214.06;5032565;28;20459;-68
2022/07/04 04:31:36;;;;;;;3.93;3.53;;;;;;;18.43;100.00;101221.75;5032940;28;20529;-69
2022/07/04 04:34:02;;;;;;;5.20;3.90;;;;;;;18.43;100.00;101222.56;5032890;28;20525;-68
2022/07/04 04:36:29;;;;;;;5.57;4.20;;;;;;;18.44;100.00;101224.16;5032589;28;20949;-66
2022/07/04 04:38:55;;;;;;;5.50;4.00;;;;;;;18.35;100.00;101228.91;5032796;28;20646;-68
2022/07/04 04:41:22;;;;;;;4.13;3.73;;;;;;;18.42;100.00;101223.69;5032800;28;20529;-68
2022/07/04 04:43:49;;;;;;;3.80;2.97;;;;;;;18.49;100.00;101232.16;5032819;28;20491;-69
2022/07/04 04:46:17;;;;;;;5.87;3.20;;;;;;;18.50;100.00;101236.50;5032885;28;20898;-67
2022/07/04 04:48:44;;;;;;;3.73;3.33;;;;;;;18.56;100.00;101232.41;5034982;28;21006;-68
2022/07/04 04:51:10;;;;;;;3.43;2.63;;;;;;;18.61;100.00;101237.69;5039737;28;20541;-68
2022/07/04 04:53:37;;;;;;;5.27;4.07;;;;;;;18.69;99.85;101244.25;5043279;28;20463;-68
2022/07/04 04:56:04;;;;;;;4.63;3.47;;;;;;;18.78;99.06;101238.69;5038880;28;20970;-69
2022/07/04 04:58:31;;;;;;;3.50;3.20;;;;;;;18.88;99.04;101243.72;5036066;28;21090;-67
2022/07/04 05:00:57;;;;;;;3.63;3.30;;;;;;;18.81;97.22;101248.94;5036296;28;20482;-68
2022/07/04 05:03:25;;;;;;;5.03;3.23;;;;;;;18.83;97.10;101247.47;5036540;28;20570;-68
2022/07/04 05:05:52;;;;;;;3.60;3.30;;;;;;;18.94;96.26;101256.06;5036176;28;20963;-69
2022/07/04 05:08:18;;;;;;;3.40;2.90;;;;;;;18.91;95.88;101240.28;5036215;28;20482;-68
2022/07/04 05:10:45;;;;;;;5.80;3.10;;;;;;;18.95;95.39;101251.38;5035891;28;21003;-70
2022/07/04 05:13:12;;;;;;;5.10;3.10;;;;;;;18.89;95.58;101250.81;5036110;28;20497;-67
2022/07/04 05:15:38;;;;;;;3.60;3.20;;;;;;;18.86;95.49;101257.00;5035979;28;20530;-68
2022/07/04 05:18:05;;;;;;;2.43;2.23;;;;;;;18.83;95.85;101266.69;5036000;28;20451;-68
2022/07/04 05:20:33;;;;;;;7.23;3.50;;;;;;;18.74;96.01;101265.19;5035824;28;20545;-67
2022/07/04 05:23:00;;;;;;;5.00;3.43;;;;;;;18.76;96.72;101274.69;5035456;28;20972;-68
2022/07/04 05:25:27;;;;;;;4.33;3.00;;;;;;;18.86;96.10;101279.75;5035835;28;20428;-68
2022/07/04 05:27:53;;;;;;;3.50;2.70;;;;;;;18.80;95.69;101285.78;5035884;28;20530;-68
2022/07/04 05:30:20;;;;;;;3.73;3.00;;;;;;;18.90;95.26;101285.34;5035638;28;20554;-67
2022/07/04 05:32:47;;;;;;;2.57;2.20;;;;;;;18.98;95.22;101291.88;5035639;28;20984;-67
2022/07/04 05:35:13;;;;;;;2.93;2.53;;;;;;;19.02;93.76;101276.34;5035443;28;20522;-68
2022/07/04 05:37:41;;;;;;;2.37;2.17;;;;;;;19.06;92.93;101267.06;5035287;28;20453;-68
2022/07/04 05:40:09;;;;;;;5.63;1.73;;;;;;;19.03;91.84;101275.97;5035848;28;20459;-68
2022/07/04 05:42:35;;;;;;;2.80;2.07;;;;;;;18.99;89.63;101286.06;5035571;28;20526;-68
2022/07/04 05:45:02;;;;;;;3.00;1.83;;;;;;;18.98;89.33;101291.88;5035136;28;21079;-67
2022/07/04 05:47:29;;;;;;;2.80;2.00;;;;;;;19.06;87.36;101288.25;5035294;28;20530;-68
2022/07/04 05:49:56;;;;;;;1.67;1.33;;;;;;;19.12;87.26;101292.34;5035329;28;20574;-75
2022/07/04 05:52:23;;;;;;;3.90;2.03;;;;;;;19.17;86.91;101283.91;5035561;28;20451;-67
2022/07/04 05:54:51;;;;;;;3.57;1.50;;;;;;;19.22;86.61;101288.38;5034938;28;20439;-68
2022/07/04 05:57:17;;;;;;;29.43;2.90;;;;;;;19.32;86.15;101291.47;5035321;28;20526;-67
2022/07/04 05:59:44;;;;;;;1.40;1.23;;;;;;;19.38;86.03;101287.34;5034988;28;20546;-67
2022/07/04 06:02:11;;;;;;;2.17;1.47;;;;;;;19.45;84.08;101294.22;5035299;28;20439;-72
2022/07/04 06:04:38;;;;;;;1.73;1.30;;;;;;;19.50;83.64;101294.00;5035101;28;20475;-69
2022/07/04 06:07:04;;;;;;;1.50;1.30;;;;;;;19.48;83.90;101299.00;5035033;28;20888;-66
2022/07/04 06:09:32;;;;;;;1.23;1.13;;;;;;;19.57;83.12;101302.47;5034974;28;20491;-69
2022/07/04 06:12:00;;;;;;;3.97;1.50;;;;;;;19.61;83.05;101311.63;5034983;28;20450;-69
2022/07/04 06:14:27;;;;;;;4.63;1.47;;;;;;;19.65;83.08;101305.09;5034552;28;20443;-68
2022/07/04 06:16:54;;;;;;;1.70;1.37;;;;;;;19.76;81.89;101302.69;5034619;28;20439;-69
2022/07/04 06:19:20;;;;;;;1.63;1.30;;;;;;;19.85;80.61;101308.06;5036047;28;20497;-68
2022/07/04 06:21:47;;;;;;;1.60;1.40;;;;;;;19.82;80.74;101314.25;5034763;28;20474;-69
2022/07/04 06:24:14;;;;;;;1.50;1.20;;;;;;;19.75;80.65;101317.59;5034736;28;20490;-68
2022/07/04 06:26:40;;;;;;;1.57;1.33;;;;;;;19.81;79.84;101324.47;5034727;28;20469;-68
2022/07/04 06:29:08;;;;;;;1.87;1.30;;;;;;;19.85;79.74;101341.06;5034494;28;20471;-68
2022/07/04 06:31:35;;;;;;;1.50;1.10;;;;;;;19.85;78.96;101330.88;5034669;28;20447;-68
2022/07/04 06:36:46;;;;;;;1.13;0.97;;;;;;;19.89;79.28;101340.03;5034533;28;20789;-69
2022/07/04 06:39:13;;;;;;;1.40;1.17;;;;;;;19.88;80.55;101343.13;5034464;28;20455;-68
2022/07/04 06:41:39;;;;;;;1.73;1.23;;;;;;;19.96;78.62;101347.69;5034115;28;20449;-68
2022/07/04 06:44:06;;;;;;;1.63;1.10;;;;;;;20.14;78.11;101342.72;5034707;28;20571;-69
2022/07/04 06:46:34;;;;;;;1.47;0.97;;;;;;;20.27;76.66;101333.28;5034060;28;21039;-68
2022/07/04 06:49:00;;;;;;;1.87;1.13;;;;;;;20.28;76.83;101334.13;5034000;28;20588;-69
2022/07/04 06:51:27;;;;;;;1.50;1.17;;;;;;;20.32;76.91;101333.06;5033979;28;20443;-68
2022/07/04 06:53:53;;;;;;;1.70;1.30;;;;;;;20.23;77.03;101328.84;5034100;28;20445;-69
2022/07/04 06:56:20;;;;;;;1.97;1.37;;;;;;;20.08;77.11;101344.94;5034269;28;20455;-68
2022/07/04 06:58:47;;;;;;;1.80;1.10;;;;;;;20.09;77.90;101335.50;5033974;28;20533;-68
2022/07/04 07:01:16;;;;;;;1.17;0.77;;;;;;;20.10;76.69;101341.84;5034066;28;20531;-68
2022/07/04 07:03:44;;;;;;;1.30;1.00;;;;;;;19.89;77.65;101348.28;5034289;28;20482;-67
2022/07/04 07:06:11;;;;;;;1.20;0.80;;;;;;;19.84;77.53;101345.78;5033955;28;20533;-69
2022/07/04 07:08:38;;;;;;;1.60;1.10;;;;;;;20.04;79.73;101341.25;5033518;28;20463;-69
2022/07/04 07:11:13;;;;;;;2.17;0.90;;;;;;;20.27;79.28;101336.03;5033329;28;20572;-69
2022/07/04 07:13:41;;;;;;;3.07;1.20;;;;;;;20.27;74.36;101336.03;5033850;28;20419;-69
2022/07/04 07:16:07;;;;;;;1.20;0.90;;;;;;;20.52;73.08;101341.50;5033743;28;20435;-69
2022/07/04 07:18:34;;;;;;;1.13;0.63;;;;;;;20.60;73.70;101349.63;5033211;28;21059;-69
2022/07/04 07:21:02;;;;;;;1.03;0.60;;;;;;;20.71;70.80;101352.66;5033682;28;20510;-69
2022/07/04 07:23:29;;;;;;;1.50;0.83;;;;;;;20.78;70.41;101363.09;5033234;28;20872;-69
2022/07/04 07:25:55;;;;;;;0.80;0.60;;;;;;;20.78;69.51;101358.38;5033633;28;20443;-67
2022/07/04 07:28:22;;;;;;;0.90;0.60;;;;;;;20.81;69.05;101354.13;5033582;28;20439;-67
2022/07/04 07:30:48;;;;;;;1.63;0.60;;;;;;;20.83;66.20;101355.38;5033327;28;20463;-69
2022/07/04 07:33:15;;;;;;;7.80;1.13;;;;;;;20.81;68.17;101360.44;5033163;28;20968;-69
2022/07/04 07:35:42;;;;;;;1.70;0.97;;;;;;;20.77;68.22;101359.53;5033580;28;20518;-69
2022/07/04 07:38:10;;;;;;;1.20;0.60;;;;;;;20.83;68.26;101363.63;5033418;28;20504;-70
2022/07/04 07:40:36;;;;;;;1.20;0.70;;;;;;;20.85;68.70;101355.84;5033599;28;20471;-73
2022/07/04 07:43:03;;;;;;;3.57;0.70;;;;;;;20.88;68.65;101355.09;5033672;28;20489;-71
2022/07/04 07:45:30;;;;;;;4.50;1.03;;;;;;;20.90;68.85;101368.53;5033164;28;20857;-70
2022/07/04 07:47:56;;;;;;;3.60;1.00;;;;;;;20.68;70.62;101369.91;5033248;28;20478;-67
2022/07/04 07:50:23;;;;;;;1.43;0.70;;;;;;;20.58;71.01;101365.66;5033207;28;20929;-66
2022/07/04 07:52:50;;;;;;;1.73;0.90;;;;;;;20.61;72.40;101372.44;5032961;28;20510;-68
2022/07/04 07:55:18;;;;;;;0.73;0.50;;;;;;;20.59;71.47;101366.50;5033239;28;20494;-67
2022/07/04 07:57:44;;;;;;;0.93;0.60;;;;;;;20.72;70.65;101364.47;5033321;28;20522;-67
2022/07/04 08:00:12;;;;;;;0.93;0.70;;;;;;;20.84;71.55;101362.47;5033706;28;20473;-67
2022/07/04 08:05:22;;;;;;;1.20;0.77;;;;;;;20.88;70.18;101371.63;5033528;28;20505;-69
2022/07/04 08:07:49;;;;;;;1.40;1.00;;;;;;;20.83;69.42;101374.66;5033314;28;20479;-67
2022/07/04 08:10:16;;;;;;;1.40;0.90;;;;;;;20.82;70.31;101373.03;5033275;28;20459;-68
2022/07/04 08:12:44;;;;;;;1.10;0.90;;;;;;;20.88;69.72;101366.13;5032779;28;20538;-66
2022/07/04 08:15:11;;;;;;;1.70;0.90;;;;;;;21.02;69.99;101365.69;5032925;28;20444;-67
2022/07/04 08:17:37;;;;;;;1.10;0.90;;;;;;;21.23;68.20;101359.97;5033255;28;20450;-67
2022/07/04 08:20:05;;;;;;;1.03;0.60;;;;;;;21.41;68.87;101366.75;5032689;28;20482;-68
2022/07/04 08:22:31;;;;;;;0.90;0.67;;;;;;;21.58;67.59;101367.56;5033735;28;20529;-68
2022/07/04 08:24:58;;;;;;;3.00;0.80;;;;;;;21.52;68.43;101378.06;5036681;28;20485;-68
2022/07/04 08:27:25;;;;;;;0.90;0.63;;;;;;;21.56;67.05;101367.09;5036961;28;20478;-68
2022/07/04 08:29:53;;;;;;;1.77;0.60;;;;;;;21.32;67.94;101370.84;5036997;28;20549;-67
2022/07/04 08:32:19;;;;;;;1.20;0.70;;;;;;;21.36;69.29;101372.53;5037029;28;20442;-67
2022/07/04 08:34:47;;;;;;;1.40;1.10;;;;;;;21.49;68.43;101364.97;5037071;28;20435;-68
2022/07/04 08:37:15;;;;;;;1.37;1.10;;;;;;;21.58;68.79;101365.59;5036953;28;20535;-68
2022/07/04 08:39:41;;;;;;;6.63;1.10;;;;;;;21.72;65.46;101370.66;5036835;28;20553;-67
2022/07/04 08:42:16;;;;;;;5.90;0.97;;;;;;;21.64;63.76;101363.34;5036715;28;20533;-67
2022/07/04 08:44:49;;;;;;;1.23;0.67;;;;;;;21.71;62.82;101358.03;5036721;28;20463;-67
2022/07/04 08:47:19;;;;;;;0.90;0.50;;;;;;;21.78;63.26;101347.16;5036346;28;20419;-66
2022/07/04 08:49:54;;;;;;;1.50;0.90;;;;;;;21.89;64.47;101355.69;5036437;28;20467;-69
2022/07/04 08:52:34;;;;;;;1.23;0.90;;;;;;;21.70;60.79;101364.72;5036297;28;20914;-68
2022/07/04 09:00:32;;;;;;;0.90;0.60;;;;;;;21.41;65.02;101364.00;5036798;28;20442;-68
2022/07/04 09:03:02;;;;;;;1.43;0.70;;;;;;;21.59;65.44;101366.41;5036050;28;21024;-67
2022/07/04 09:05:29;;;;;;;1.13;0.60;;;;;;;21.70;63.83;101364.72;5036338;28;20570;-67
2022/07/04 09:07:56;;;;;;;1.07;0.70;;;;;;;21.71;63.43;101371.81;5035863;28;20945;-69
2022/07/04 09:10:23;;;;;;;2.90;0.77;;;;;;;21.72;63.42;101367.91;5036229;28;20506;-67
2022/07/04 09:12:49;;;;;;;0.90;0.70;;;;;;;21.84;62.59;101373.31;5036105;28;20526;-68
2022/07/04 09:15:16;;;;;;;1.00;0.70;;;;;;;21.94;58.99;101377.47;5035991;28;20471;-69
2022/07/04 09:17:44;;;;;;;1.20;0.80;;;;;;;22.11;58.25;101390.06;5035714;28;20972;-68
2022/07/04 09:20:17;;;;;;;1.50;0.93;;;;;;;22.12;59.81;101380.66;5035746;28;20484;-67
2022/07/04 09:22:44;;;;;;;0.80;0.60;;;;;;;22.21;58.57;101377.69;5035879;28;20541;-67
2022/07/04 09:25:14;;;;;;;0.80;0.50;;;;;;;22.38;57.65;101375.31;5035963;28;20570;-68
2022/07/04 09:27:44;;;;;;;3.27;1.33;;;;;;;22.50;58.30;101365.31;5035950;28;20450;-68
2022/07/04 09:30:12;;;;;;;1.00;0.70;;;;;;;22.49;58.09;101369.22;5035459;28;20906;-67
2022/07/04 09:32:41;;;;;;;1.17;0.70;;;;;;;22.59;57.56;101376.94;5035681;28;20439;-68
2022/07/04 09:35:09;;;;;;;1.10;0.70;;;;;;;22.65;56.98;101383.75;5035283;28;20526;-68
2022/07/04 09:37:39;;;;;;;1.00;0.70;;;;;;;22.76;54.81;101378.47;5035957;28;20526;-67
2022/07/04 09:40:09;;;;;;;1.07;0.73;;;;;;;22.67;53.39;101381.44;5035576;28;20463;-67
2022/07/04 09:42:41;;;;;;;0.70;0.50;;;;;;;22.78;54.11;101379.69;5035570;28;20455;-68
2022/07/04 09:45:10;;;;;;;0.83;0.60;;;;;;;22.91;53.40;101381.16;5035585;28;20473;-68
2022/07/04 09:47:39;;;;;;;1.07;0.57;;;;;;;23.15;54.39;101381.97;5035476;28;20529;-67
2022/07/04 09:50:08;;;;;;;1.20;0.87;;;;;;;23.26;55.17;101384.94;5035537;28;20469;-66
2022/07/04 09:52:47;;;;;;;0.83;0.63;;;;;;;23.41;53.86;101390.34;5035317;28;20933;-68
2022/07/04 09:55:21;;;;;;;1.00;0.73;;;;;;;23.31;52.86;101387.41;5035486;28;20455;-69
2022/07/04 09:57:48;;;;;;;3.63;0.83;;;;;;;23.26;53.88;101382.19;5035400;28;20514;-69
2022/07/04 10:00:20;;;;;;;1.00;0.60;;;;;;;23.24;53.27;101388.09;5035249;28;20469;-68
2022/07/04 10:02:47;;;;;;;1.30;0.77;;;;;;;23.21;52.22;101390.78;5035107;28;20471;-69
2022/07/04 10:05:20;;;;;;;0.80;0.50;;;;;;;23.24;52.64;101390.84;5035186;28;20574;-68
2022/07/04 10:07:48;;;;;;;0.80;0.60;;;;;;;23.39;52.69;101391.91;5034869;28;20427;-70
2022/07/04 10:10:24;;;;;;;4.40;1.03;;;;;;;23.42;52.18;101389.19;5034612;28;21040;-68
2022/07/04 10:12:51;;;;;;;0.90;0.60;;;;;;;23.59;52.85;101387.06;5034734;28;20431;-69
2022/07/04 10:15:18;;;;;;;1.37;0.80;;;;;;;23.85;52.17;101391.88;5034974;28;20451;-68
2022/07/04 10:17:45;;;;;;;0.83;0.57;;;;;;;24.01;51.50;101386.19;5034886;28;20442;-69
2022/07/04 10:20:13;;;;;;;0.90;0.50;;;;;;;24.12;52.28;101392.66;5034533;28;20554;-68
2022/07/04 10:22:39;;;;;;;1.00;0.70;;;;;;;24.14;51.62;101395.88;5034776;28;20454;-69
2022/07/04 10:25:10;;;;;;;0.70;0.40;;;;;;;24.16;51.70;101401.81;5034907;28;20514;-69
2022/07/04 10:27:36;;;;;;;1.00;0.67;;;;;;;24.12;50.24;101392.66;5034945;28;20882;-69
2022/07/04 10:30:06;;;;;;;1.20;0.73;;;;;;;24.08;51.25;101391.81;5034743;28;20550;-69
2022/07/04 10:32:33;;;;;;;0.80;0.53;;;;;;;24.15;52.03;101389.16;5034484;28;20538;-68
2022/07/04 10:35:00;;;;;;;1.23;0.67;;;;;;;24.06;51.11;101388.63;5034733;28;20443;-71
2022/07/04 10:37:59;;;;;;;1.13;0.70;;;;;;;24.20;51.06;101380.53;5034694;28;20473;-71
2022/07/04 10:40:45;;;;;;;0.93;0.57;;;;;;;23.85;49.85;101380.81;5034303;28;20467;-71
2022/07/04 10:43:40;;;;;;;1.97;0.67;;;;;;;23.77;50.82;101379.09;5034808;28;20434;-68
2022/07/04 10:46:28;;;;;;;0.80;0.60;;;;;;;23.75;51.82;101373.94;5033562;28;20518;-69
2022/07/04 10:48:57;;;;;;;0.80;0.60;;;;;;;23.90;51.35;101367.44;5034355;28;20477;-70
2022/07/04 10:51:43;;;;;;;0.83;0.50;;;;;;;24.02;50.03;101371.19;5034192;28;20813;-71
2022/07/04 10:54:12;;;;;;;1.37;1.00;;;;;;;24.31;48.90;101364.06;5034292;28;20491;-72
2022/07/04 10:56:44;;;;;;;1.47;0.90;;;;;;;24.50;49.97;101374.22;5034368;28;20531;-71
2022/07/04 10:59:13;;;;;;;0.70;0.40;;;;;;;24.62;49.50;101379.53;5034195;28;20467;-70
2022/07/04 11:01:40;;;;;;;1.07;0.63;;;;;;;24.61;49.71;101377.91;5034372;28;20443;-69
2022/07/04 11:04:06;;;;;;;2.40;0.73;;;;;;;24.69;48.44;101371.28;5034526;28;20446;-72
2022/07/04 11:06:54;;;;;;;0.93;0.77;;;;;;;24.20;49.38;101372.22;5033943;28;20493;-72
2022/07/04 11:09:22;;;;;;;1.30;0.70;;;;;;;24.24;49.83;101363.97;5018919;28;20484;-71
2022/07/04 11:11:51;;;;;;;0.70;0.50;;;;;;;24.18;49.90;101363.50;5014116;28;20450;-71
2022/07/04 11:14:36;;;;;;;0.70;0.50;;;;;;;23.89;50.05;101357.53;5014493;28;20438;-71
2022/07/04 11:17:03;;;;;;;1.20;0.80;;;;;;;23.89;50.56;101360.31;5012817;28;20538;-71
2022/07/04 11:19:30;;;;;;;0.90;0.63;;;;;;;24.19;50.26;101354.00;5013816;28;20559;-70
2022/07/04 11:21:57;;;;;;;0.90;0.70;;;;;;;24.22;49.74;101353.28;5013886;28;21013;-70
2022/07/04 11:24:24;;;;;;;1.07;0.60;;;;;;;24.48;48.89;101354.41;5014500;28;20535;-71
2022/07/04 11:26:53;;;;;;;0.90;0.53;;;;;;;24.75;49.99;101347.63;5014040;28;20483;-70
2022/07/04 11:29:20;;;;;;;0.97;0.63;;;;;;;25.39;49.18;101347.44;5014028;28;20468;-70
2022/07/04 11:31:48;;;;;;;3.63;0.77;;;;;;;26.02;45.82;101348.28;5013789;28;21028;-71
2022/07/04 11:34:16;;;;;;;4.80;1.03;;;;;;;26.44;45.49;101341.41;5013982;28;20514;-71
2022/07/04 11:36:44;;;;;;;1.87;0.77;;;;;;;26.83;44.15;101345.09;5013829;28;20440;-70
2022/07/04 11:39:14;;;;;;;0.67;0.37;;;;;;;27.51;42.70;101355.50;5013334;28;20555;-70
2022/07/04 11:47:15;;;;;;;0.80;0.40;;;;;;;25.77;44.01;101345.38;5013632;28;20789;-71
2022/07/04 11:49:45;;;;;;;1.70;0.80;;;;;;;25.01;45.24;101348.66;5013679;28;20463;-69
2022/07/04 11:52:12;;;;;;;0.70;0.40;;;;;;;24.96;45.89;101349.00;5013619;28;20436;-70